sensor_id;sensor_type;location;lat;lon;timestamp;P1;durP1;ratioP1;P2;durP2;ratioP2
17915;SDS011;9083;49.156;8.982;2023-09-07T00:00:22;5.20;;;3.40;;
17915;SDS011;9083;49.156;8.982;2023-09-07T00:02:49;4.17;;;3.40;;
17915;SDS011;9083;49.156;8.982;2023-09-07T00:05:15;6.13;;;3.23;;
17915;SDS011;9083;49.156;8.982;2023-09-07T00:07:41;5.73;;;3.37;;
17915;SDS011;9083;49.156;8.982;2023-09-07T00:10:09;3.77;;;3.30;;
17915;SDS011;9083;49.156;8.982;2023-09-07T00:12:35;3.33;;;3.13;;
17915;SDS011;9083;49.156;8.982;2023-09-07T00:15:04;4.53;;;3.67;;
17915;SDS011;9083;49.156;8.982;2023-09-07T00:17:31;3.57;;;3.00;;
17915;SDS011;9083;49.156;8.982;2023-09-07T00:19:57;4.80;;;2.90;;
17915;SDS011;9083;49.156;8.982;2023-09-07T00:22:24;5.63;;;3.40;;
17915;SDS011;9083;49.156;8.982;2023-09-07T00:24:51;6.93;;;3.30;;
17915;SDS011;9083;49.156;8.982;2023-09-07T00:27:18;3.97;;;3.17;;
17915;SDS011;9083;49.156;8.982;2023-09-07T00:29:44;5.53;;;3.20;;
17915;SDS011;9083;49.156;8.982;2023-09-07T00:32:11;4.57;;;3.23;;
17915;SDS011;9083;49.156;8.982;2023-09-07T00:34:37;3.30;;;3.00;;
17915;SDS011;9083;49.156;8.982;2023-09-07T00:37:03;4.77;;;3.80;;
17915;SDS011;9083;49.156;8.982;2023-09-07T00:39:30;7.03;;;3.37;;
17915;SDS011;9083;49.156;8.982;2023-09-07T00:41:56;3.53;;;3.00;;
17915;SDS011;9083;49.156;8.982;2023-09-07T00:44:23;4.37;;;3.50;;
17915;SDS011;9083;49.156;8.982;2023-09-07T00:46:50;5.63;;;2.97;;
17915;SDS011;9083;49.156;8.982;2023-09-07T00:49:16;3.73;;;3.37;;
17915;SDS011;9083;49.156;8.982;2023-09-07T00:51:42;4.27;;;3.43;;
17915;SDS011;9083;49.156;8.982;2023-09-07T00:54:10;3.47;;;3.17;;
17915;SDS011;9083;49.156;8.982;2023-09-07T00:56:36;3.80;;;3.50;;
17915;SDS011;9083;49.156;8.982;2023-09-07T00:59:02;3.50;;;3.20;;
17915;SDS011;9083;49.156;8.982;2023-09-07T01:01:31;5.17;;;3.27;;
17915;SDS011;9083;49.156;8.982;2023-09-07T01:03:58;6.50;;;3.20;;
17915;SDS011;9083;49.156;8.982;2023-09-07T01:06:25;3.37;;;3.00;;
17915;SDS011;9083;49.156;8.982;2023-09-07T01:08:54;3.60;;;3.30;;
17915;SDS011;9083;49.156;8.982;2023-09-07T01:11:21;4.67;;;3.53;;
17915;SDS011;9083;49.156;8.982;2023-09-07T01:13:47;3.90;;;3.30;;
17915;SDS011;9083;49.156;8.982;2023-09-07T01:16:14;5.77;;;3.20;;
17915;SDS011;9083;49.156;8.982;2023-09-07T01:18:42;4.53;;;3.80;;
17915;SDS011;9083;49.156;8.982;2023-09-07T01:21:08;4.37;;;3.57;;
17915;SDS011;9083;49.156;8.982;2023-09-07T01:23:40;6.57;;;3.47;;
17915;SDS011;9083;49.156;8.982;2023-09-07T01:26:07;3.87;;;3.43;;
17915;SDS011;9083;49.156;8.982;2023-09-07T01:28:34;6.00;;;3.40;;
17915;SDS011;9083;49.156;8.982;2023-09-07T01:31:00;4.50;;;4.07;;
17915;SDS011;9083;49.156;8.982;2023-09-07T01:33:26;4.33;;;3.10;;
17915;SDS011;9083;49.156;8.982;2023-09-07T01:35:53;6.57;;;3.70;;
17915;SDS011;9083;49.156;8.982;2023-09-07T01:38:19;4.40;;;3.93;;
17915;SDS011;9083;49.156;8.982;2023-09-07T01:40:47;3.57;;;3.27;;
17915;SDS011;9083;49.156;8.982;2023-09-07T01:43:13;4.67;;;3.60;;
17915;SDS011;9083;49.156;8.982;2023-09-07T01:45:39;4.43;;;3.47;;
17915;SDS011;9083;49.156;8.982;2023-09-07T01:48:07;4.63;;;3.40;;
17915;SDS011;9083;49.156;8.982;2023-09-07T01:50:34;6.87;;;3.40;;
17915;SDS011;9083;49.156;8.982;2023-09-07T01:53:00;3.60;;;3.30;;
17915;SDS011;9083;49.156;8.982;2023-09-07T01:55:28;3.73;;;3.40;;
17915;SDS011;9083;49.156;8.982;2023-09-07T01:57:56;3.93;;;3.63;;
17915;SDS011;9083;49.156;8.982;2023-09-07T02:00:22;4.17;;;3.30;;
17915;SDS011;9083;49.156;8.982;2023-09-07T02:02:48;4.70;;;3.50;;
17915;SDS011;9083;49.156;8.982;2023-09-07T02:05:14;3.80;;;2.90;;
17915;SDS011;9083;49.156;8.982;2023-09-07T02:07:41;3.80;;;3.50;;
17915;SDS011;9083;49.156;8.982;2023-09-07T02:10:08;3.70;;;3.40;;
17915;SDS011;9083;49.156;8.982;2023-09-07T02:12:34;4.90;;;2.90;;
17915;SDS011;9083;49.156;8.982;2023-09-07T02:15:02;5.63;;;3.10;;
17915;SDS011;9083;49.156;8.982;2023-09-07T02:17:29;5.87;;;3.57;;
17915;SDS011;9083;49.156;8.982;2023-09-07T02:19:55;3.80;;;3.00;;
17915;SDS011;9083;49.156;8.982;2023-09-07T02:22:22;3.50;;;3.20;;
17915;SDS011;9083;49.156;8.982;2023-09-07T02:24:48;4.00;;;3.40;;
17915;SDS011;9083;49.156;8.982;2023-09-07T02:27:14;5.83;;;3.30;;
17915;SDS011;9083;49.156;8.982;2023-09-07T02:29:40;5.77;;;3.20;;
17915;SDS011;9083;49.156;8.982;2023-09-07T02:32:08;6.77;;;3.20;;
17915;SDS011;9083;49.156;8.982;2023-09-07T02:34:35;6.10;;;3.30;;
17915;SDS011;9083;49.156;8.982;2023-09-07T02:37:02;3.57;;;3.27;;
17915;SDS011;9083;49.156;8.982;2023-09-07T02:39:28;5.47;;;3.00;;
17915;SDS011;9083;49.156;8.982;2023-09-07T02:41:54;4.03;;;3.10;;
17915;SDS011;9083;49.156;8.982;2023-09-07T02:44:21;3.13;;;2.93;;
17915;SDS011;9083;49.156;8.982;2023-09-07T02:46:47;4.20;;;3.70;;
17915;SDS011;9083;49.156;8.982;2023-09-07T02:49:15;3.17;;;2.87;;
17915;SDS011;9083;49.156;8.982;2023-09-07T02:51:41;4.43;;;2.97;;
17915;SDS011;9083;49.156;8.982;2023-09-07T02:54:07;3.03;;;2.83;;
17915;SDS011;9083;49.156;8.982;2023-09-07T02:56:33;4.97;;;3.67;;
17915;SDS011;9083;49.156;8.982;2023-09-07T02:59:00;3.10;;;2.90;;
17915;SDS011;9083;49.156;8.982;2023-09-07T03:01:26;4.30;;;3.50;;
17915;SDS011;9083;49.156;8.982;2023-09-07T03:03:52;3.40;;;3.10;;
17915;SDS011;9083;49.156;8.982;2023-09-07T03:06:20;3.63;;;3.33;;
17915;SDS011;9083;49.156;8.982;2023-09-07T03:08:46;4.73;;;3.27;;
17915;SDS011;9083;49.156;8.982;2023-09-07T03:11:12;3.97;;;3.50;;
17915;SDS011;9083;49.156;8.982;2023-09-07T03:13:39;4.47;;;3.70;;
17915;SDS011;9083;49.156;8.982;2023-09-07T03:16:05;3.70;;;3.40;;
17915;SDS011;9083;49.156;8.982;2023-09-07T03:18:32;6.30;;;3.70;;
17915;SDS011;9083;49.156;8.982;2023-09-07T03:20:59;5.10;;;3.90;;
17915;SDS011;9083;49.156;8.982;2023-09-07T03:23:28;3.97;;;3.60;;
17915;SDS011;9083;49.156;8.982;2023-09-07T03:25:54;6.80;;;3.40;;
17915;SDS011;9083;49.156;8.982;2023-09-07T03:28:20;3.60;;;3.30;;
17915;SDS011;9083;49.156;8.982;2023-09-07T03:30:47;5.93;;;3.50;;
17915;SDS011;9083;49.156;8.982;2023-09-07T03:33:13;3.10;;;2.90;;
17915;SDS011;9083;49.156;8.982;2023-09-07T03:35:39;4.00;;;3.40;;
17915;SDS011;9083;49.156;8.982;2023-09-07T03:38:05;7.47;;;3.53;;
17915;SDS011;9083;49.156;8.982;2023-09-07T03:40:33;4.57;;;3.50;;
17915;SDS011;9083;49.156;8.982;2023-09-07T03:42:59;5.57;;;3.60;;
17915;SDS011;9083;49.156;8.982;2023-09-07T03:45:26;4.60;;;3.20;;
17915;SDS011;9083;49.156;8.982;2023-09-07T03:47:52;3.93;;;3.57;;
17915;SDS011;9083;49.156;8.982;2023-09-07T03:50:18;3.90;;;3.13;;
17915;SDS011;9083;49.156;8.982;2023-09-07T03:52:44;3.17;;;2.90;;
17915;SDS011;9083;49.156;8.982;2023-09-07T03:55:11;3.47;;;3.17;;
17915;SDS011;9083;49.156;8.982;2023-09-07T03:57:38;3.73;;;3.43;;
17915;SDS011;9083;49.156;8.982;2023-09-07T04:00:05;6.43;;;3.77;;
17915;SDS011;9083;49.156;8.982;2023-09-07T04:02:33;3.47;;;3.17;;
17915;SDS011;9083;49.156;8.982;2023-09-07T04:05:00;4.40;;;3.80;;
17915;SDS011;9083;49.156;8.982;2023-09-07T04:07:29;4.37;;;3.83;;
17915;SDS011;9083;49.156;8.982;2023-09-07T04:09:56;5.47;;;3.80;;
17915;SDS011;9083;49.156;8.982;2023-09-07T04:12:22;4.87;;;3.90;;
17915;SDS011;9083;49.156;8.982;2023-09-07T04:14:50;10.97;;;5.27;;
17915;SDS011;9083;49.156;8.982;2023-09-07T04:17:16;7.00;;;4.77;;
17915;SDS011;9083;49.156;8.982;2023-09-07T04:19:42;6.90;;;4.50;;
17915;SDS011;9083;49.156;8.982;2023-09-07T04:22:10;4.77;;;4.00;;
17915;SDS011;9083;49.156;8.982;2023-09-07T04:24:36;6.43;;;4.47;;
17915;SDS011;9083;49.156;8.982;2023-09-07T04:27:03;6.43;;;4.57;;
17915;SDS011;9083;49.156;8.982;2023-09-07T04:29:29;5.50;;;4.37;;
17915;SDS011;9083;49.156;8.982;2023-09-07T04:31:57;5.87;;;4.40;;
17915;SDS011;9083;49.156;8.982;2023-09-07T04:34:23;10.57;;;4.57;;
17915;SDS011;9083;49.156;8.982;2023-09-07T04:36:49;8.13;;;4.23;;
17915;SDS011;9083;49.156;8.982;2023-09-07T04:39:16;7.20;;;4.53;;
17915;SDS011;9083;49.156;8.982;2023-09-07T04:41:43;6.73;;;4.40;;
17915;SDS011;9083;49.156;8.982;2023-09-07T04:44:09;7.13;;;4.17;;
17915;SDS011;9083;49.156;8.982;2023-09-07T04:46:35;5.17;;;4.00;;
17915;SDS011;9083;49.156;8.982;2023-09-07T04:49:03;7.93;;;4.07;;
17915;SDS011;9083;49.156;8.982;2023-09-07T04:51:29;4.50;;;4.10;;
17915;SDS011;9083;49.156;8.982;2023-09-07T04:53:55;7.93;;;4.23;;
17915;SDS011;9083;49.156;8.982;2023-09-07T04:56:22;6.27;;;3.87;;
17915;SDS011;9083;49.156;8.982;2023-09-07T04:58:50;5.87;;;4.37;;
17915;SDS011;9083;49.156;8.982;2023-09-07T05:01:16;12.03;;;4.57;;
17915;SDS011;9083;49.156;8.982;2023-09-07T05:03:43;10.43;;;4.77;;
17915;SDS011;9083;49.156;8.982;2023-09-07T05:06:10;21.77;;;5.77;;
17915;SDS011;9083;49.156;8.982;2023-09-07T05:08:37;5.43;;;4.00;;
17915;SDS011;9083;49.156;8.982;2023-09-07T05:11:03;5.40;;;3.90;;
17915;SDS011;9083;49.156;8.982;2023-09-07T05:13:30;6.50;;;3.90;;
17915;SDS011;9083;49.156;8.982;2023-09-07T05:15:57;5.00;;;4.40;;
17915;SDS011;9083;49.156;8.982;2023-09-07T05:18:24;7.37;;;4.20;;
17915;SDS011;9083;49.156;8.982;2023-09-07T05:20:50;7.70;;;4.47;;
17915;SDS011;9083;49.156;8.982;2023-09-07T05:23:18;7.77;;;4.97;;
17915;SDS011;9083;49.156;8.982;2023-09-07T05:25:45;7.00;;;4.40;;
17915;SDS011;9083;49.156;8.982;2023-09-07T05:28:12;5.20;;;4.30;;
17915;SDS011;9083;49.156;8.982;2023-09-07T05:30:38;8.47;;;4.70;;
17915;SDS011;9083;49.156;8.982;2023-09-07T05:33:05;8.70;;;5.00;;
17915;SDS011;9083;49.156;8.982;2023-09-07T05:35:31;7.00;;;4.07;;
17915;SDS011;9083;49.156;8.982;2023-09-07T05:37:58;10.77;;;5.37;;
17915;SDS011;9083;49.156;8.982;2023-09-07T05:40:27;13.43;;;5.20;;
17915;SDS011;9083;49.156;8.982;2023-09-07T05:42:53;13.13;;;5.93;;
17915;SDS011;9083;49.156;8.982;2023-09-07T05:45:20;13.60;;;6.20;;
17915;SDS011;9083;49.156;8.982;2023-09-07T05:47:46;8.00;;;5.83;;
17915;SDS011;9083;49.156;8.982;2023-09-07T05:50:12;8.50;;;4.87;;
17915;SDS011;9083;49.156;8.982;2023-09-07T05:52:38;9.47;;;5.00;;
17915;SDS011;9083;49.156;8.982;2023-09-07T05:55:05;12.20;;;4.97;;
17915;SDS011;9083;49.156;8.982;2023-09-07T05:57:33;6.37;;;4.43;;
17915;SDS011;9083;49.156;8.982;2023-09-07T05:59:59;6.13;;;4.07;;
17915;SDS011;9083;49.156;8.982;2023-09-07T06:02:26;8.43;;;4.90;;
17915;SDS011;9083;49.156;8.982;2023-09-07T06:04:52;7.10;;;4.60;;
17915;SDS011;9083;49.156;8.982;2023-09-07T06:07:18;6.57;;;4.87;;
17915;SDS011;9083;49.156;8.982;2023-09-07T06:09:44;7.40;;;4.57;;
17915;SDS011;9083;49.156;8.982;2023-09-07T06:12:11;11.67;;;5.00;;
17915;SDS011;9083;49.156;8.982;2023-09-07T06:14:39;6.10;;;5.17;;
17915;SDS011;9083;49.156;8.982;2023-09-07T06:17:05;7.07;;;4.90;;
17915;SDS011;9083;49.156;8.982;2023-09-07T06:19:31;6.13;;;4.67;;
17915;SDS011;9083;49.156;8.982;2023-09-07T06:21:58;5.20;;;4.50;;
17915;SDS011;9083;49.156;8.982;2023-09-07T06:24:24;6.87;;;4.47;;
17915;SDS011;9083;49.156;8.982;2023-09-07T06:26:50;7.13;;;4.57;;
17915;SDS011;9083;49.156;8.982;2023-09-07T06:29:16;8.43;;;4.80;;
17915;SDS011;9083;49.156;8.982;2023-09-07T06:31:44;5.53;;;4.53;;
17915;SDS011;9083;49.156;8.982;2023-09-07T06:34:10;13.37;;;5.30;;
17915;SDS011;9083;49.156;8.982;2023-09-07T06:36:36;11.50;;;5.37;;
17915;SDS011;9083;49.156;8.982;2023-09-07T06:39:03;10.83;;;4.90;;
17915;SDS011;9083;49.156;8.982;2023-09-07T06:41:30;5.43;;;4.80;;
17915;SDS011;9083;49.156;8.982;2023-09-07T06:43:57;6.63;;;4.60;;
17915;SDS011;9083;49.156;8.982;2023-09-07T06:46:24;10.57;;;4.90;;
17915;SDS011;9083;49.156;8.982;2023-09-07T06:48:52;12.60;;;5.47;;
17915;SDS011;9083;49.156;8.982;2023-09-07T06:51:18;13.43;;;5.07;;
17915;SDS011;9083;49.156;8.982;2023-09-07T06:53:44;6.27;;;4.80;;
17915;SDS011;9083;49.156;8.982;2023-09-07T06:56:11;6.17;;;4.87;;
17915;SDS011;9083;49.156;8.982;2023-09-07T06:58:37;8.73;;;4.93;;
17915;SDS011;9083;49.156;8.982;2023-09-07T07:01:04;5.00;;;4.50;;
17915;SDS011;9083;49.156;8.982;2023-09-07T07:03:31;9.67;;;4.87;;
17915;SDS011;9083;49.156;8.982;2023-09-07T07:05:58;5.53;;;4.00;;
17915;SDS011;9083;49.156;8.982;2023-09-07T07:08:25;5.53;;;4.37;;
17915;SDS011;9083;49.156;8.982;2023-09-07T07:10:51;5.57;;;3.67;;
17915;SDS011;9083;49.156;8.982;2023-09-07T07:13:18;7.00;;;4.40;;
17915;SDS011;9083;49.156;8.982;2023-09-07T07:15:44;10.60;;;5.50;;
17915;SDS011;9083;49.156;8.982;2023-09-07T07:18:11;8.87;;;4.70;;
17915;SDS011;9083;49.156;8.982;2023-09-07T07:20:37;7.43;;;4.47;;
17915;SDS011;9083;49.156;8.982;2023-09-07T07:23:05;5.73;;;3.90;;
17915;SDS011;9083;49.156;8.982;2023-09-07T07:25:31;8.57;;;5.03;;
17915;SDS011;9083;49.156;8.982;2023-09-07T07:27:58;4.67;;;4.10;;
17915;SDS011;9083;49.156;8.982;2023-09-07T07:30:26;7.97;;;4.67;;
17915;SDS011;9083;49.156;8.982;2023-09-07T07:32:52;5.87;;;4.47;;
17915;SDS011;9083;49.156;8.982;2023-09-07T07:35:19;8.90;;;4.10;;
17915;SDS011;9083;49.156;8.982;2023-09-07T07:37:45;6.67;;;3.83;;
17915;SDS011;9083;49.156;8.982;2023-09-07T07:40:13;4.43;;;3.67;;
17915;SDS011;9083;49.156;8.982;2023-09-07T07:42:39;10.87;;;4.50;;
17915;SDS011;9083;49.156;8.982;2023-09-07T07:45:06;7.53;;;4.50;;
17915;SDS011;9083;49.156;8.982;2023-09-07T07:47:32;10.00;;;4.57;;
17915;SDS011;9083;49.156;8.982;2023-09-07T07:49:58;5.47;;;4.40;;
17915;SDS011;9083;49.156;8.982;2023-09-07T07:52:24;7.43;;;4.80;;
17915;SDS011;9083;49.156;8.982;2023-09-07T07:54:51;14.73;;;8.93;;
17915;SDS011;9083;49.156;8.982;2023-09-07T07:57:19;6.17;;;4.93;;
17915;SDS011;9083;49.156;8.982;2023-09-07T07:59:45;8.70;;;4.43;;
17915;SDS011;9083;49.156;8.982;2023-09-07T08:02:11;5.40;;;4.33;;
17915;SDS011;9083;49.156;8.982;2023-09-07T08:04:38;4.50;;;4.10;;
17915;SDS011;9083;49.156;8.982;2023-09-07T08:07:04;10.83;;;4.53;;
17915;SDS011;9083;49.156;8.982;2023-09-07T08:09:32;6.53;;;3.87;;
17915;SDS011;9083;49.156;8.982;2023-09-07T08:11:58;7.90;;;4.20;;
17915;SDS011;9083;49.156;8.982;2023-09-07T08:14:29;6.17;;;4.27;;
17915;SDS011;9083;49.156;8.982;2023-09-07T08:16:56;12.27;;;3.63;;
17915;SDS011;9083;49.156;8.982;2023-09-07T08:19:22;7.13;;;4.07;;
17915;SDS011;9083;49.156;8.982;2023-09-07T08:21:48;5.07;;;4.10;;
17915;SDS011;9083;49.156;8.982;2023-09-07T08:24:15;12.27;;;4.57;;
17915;SDS011;9083;49.156;8.982;2023-09-07T08:26:41;5.17;;;3.70;;
17915;SDS011;9083;49.156;8.982;2023-09-07T08:29:08;10.53;;;4.37;;
17915;SDS011;9083;49.156;8.982;2023-09-07T08:31:35;4.93;;;3.83;;
17915;SDS011;9083;49.156;8.982;2023-09-07T08:34:04;4.20;;;3.80;;
17915;SDS011;9083;49.156;8.982;2023-09-07T08:36:31;8.27;;;4.20;;
17915;SDS011;9083;49.156;8.982;2023-09-07T08:38:59;7.10;;;4.13;;
17915;SDS011;9083;49.156;8.982;2023-09-07T08:41:26;5.90;;;3.80;;
17915;SDS011;9083;49.156;8.982;2023-09-07T08:43:53;17.53;;;5.27;;
17915;SDS011;9083;49.156;8.982;2023-09-07T08:46:20;4.13;;;3.83;;
17915;SDS011;9083;49.156;8.982;2023-09-07T08:48:48;7.60;;;4.47;;
17915;SDS011;9083;49.156;8.982;2023-09-07T08:51:15;7.43;;;4.70;;
17915;SDS011;9083;49.156;8.982;2023-09-07T08:53:43;4.43;;;4.00;;
17915;SDS011;9083;49.156;8.982;2023-09-07T08:56:11;7.80;;;4.30;;
17915;SDS011;9083;49.156;8.982;2023-09-07T08:58:38;9.93;;;4.50;;
17915;SDS011;9083;49.156;8.982;2023-09-07T09:01:05;5.10;;;3.83;;
17915;SDS011;9083;49.156;8.982;2023-09-07T09:03:33;9.10;;;4.20;;
17915;SDS011;9083;49.156;8.982;2023-09-07T09:06:01;8.90;;;3.70;;
17915;SDS011;9083;49.156;8.982;2023-09-07T09:08:27;6.13;;;3.77;;
17915;SDS011;9083;49.156;8.982;2023-09-07T09:10:59;8.23;;;4.40;;
17915;SDS011;9083;49.156;8.982;2023-09-07T09:13:29;6.90;;;3.73;;
17915;SDS011;9083;49.156;8.982;2023-09-07T09:15:55;9.33;;;4.23;;
17915;SDS011;9083;49.156;8.982;2023-09-07T09:18:22;6.07;;;3.92;;
17915;SDS011;9083;49.156;8.982;2023-09-07T09:20:48;9.88;;;4.05;;
17915;SDS011;9083;49.156;8.982;2023-09-07T09:23:15;5.90;;;3.67;;
17915;SDS011;9083;49.156;8.982;2023-09-07T09:25:42;17.85;;;5.28;;
17915;SDS011;9083;49.156;8.982;2023-09-07T09:28:08;5.65;;;4.10;;
17915;SDS011;9083;49.156;8.982;2023-09-07T09:30:34;7.30;;;4.05;;
17915;SDS011;9083;49.156;8.982;2023-09-07T09:33:01;4.63;;;3.97;;
17915;SDS011;9083;49.156;8.982;2023-09-07T09:35:27;4.13;;;3.83;;
17915;SDS011;9083;49.156;8.982;2023-09-07T09:37:54;6.43;;;4.03;;
17915;SDS011;9083;49.156;8.982;2023-09-07T09:40:22;6.13;;;3.95;;
17915;SDS011;9083;49.156;8.982;2023-09-07T09:42:49;5.78;;;4.25;;
17915;SDS011;9083;49.156;8.982;2023-09-07T09:45:18;4.65;;;3.80;;
17915;SDS011;9083;49.156;8.982;2023-09-07T09:47:45;6.60;;;4.70;;
17915;SDS011;9083;49.156;8.982;2023-09-07T09:50:11;10.82;;;4.10;;
17915;SDS011;9083;49.156;8.982;2023-09-07T09:52:38;5.47;;;3.92;;
17915;SDS011;9083;49.156;8.982;2023-09-07T09:55:05;5.43;;;4.45;;
17915;SDS011;9083;49.156;8.982;2023-09-07T09:57:34;7.63;;;4.30;;
17915;SDS011;9083;49.156;8.982;2023-09-07T10:00:01;4.30;;;3.90;;
17915;SDS011;9083;49.156;8.982;2023-09-07T10:02:35;4.45;;;4.05;;
17915;SDS011;9083;49.156;8.982;2023-09-07T10:05:02;5.38;;;3.42;;
17915;SDS011;9083;49.156;8.982;2023-09-07T10:07:40;5.07;;;3.72;;
17915;SDS011;9083;49.156;8.982;2023-09-07T10:10:08;6.93;;;3.90;;
17915;SDS011;9083;49.156;8.982;2023-09-07T10:12:40;5.63;;;4.03;;
17915;SDS011;9083;49.156;8.982;2023-09-07T10:15:07;4.43;;;4.13;;
17915;SDS011;9083;49.156;8.982;2023-09-07T10:17:45;4.40;;;4.00;;
17915;SDS011;9083;49.156;8.982;2023-09-07T10:20:15;4.63;;;3.75;;
17915;SDS011;9083;49.156;8.982;2023-09-07T10:22:41;5.65;;;3.95;;
17915;SDS011;9083;49.156;8.982;2023-09-07T10:25:17;3.83;;;3.30;;
17915;SDS011;9083;49.156;8.982;2023-09-07T10:27:44;4.28;;;3.72;;
17915;SDS011;9083;49.156;8.982;2023-09-07T10:30:12;4.35;;;3.95;;
17915;SDS011;9083;49.156;8.982;2023-09-07T10:32:41;7.22;;;3.88;;
17915;SDS011;9083;49.156;8.982;2023-09-07T10:35:12;4.32;;;3.50;;
17915;SDS011;9083;49.156;8.982;2023-09-07T10:37:38;4.00;;;3.70;;
17915;SDS011;9083;49.156;8.982;2023-09-07T10:40:05;5.43;;;3.92;;
17915;SDS011;9083;49.156;8.982;2023-09-07T10:42:36;4.93;;;4.10;;
17915;SDS011;9083;49.156;8.982;2023-09-07T10:45:09;3.92;;;3.63;;
17915;SDS011;9083;49.156;8.982;2023-09-07T10:47:35;4.47;;;3.55;;
17915;SDS011;9083;49.156;8.982;2023-09-07T10:50:06;10.60;;;4.22;;
17915;SDS011;9083;49.156;8.982;2023-09-07T10:52:33;4.63;;;3.55;;
17915;SDS011;9083;49.156;8.982;2023-09-07T10:54:59;5.18;;;3.38;;
17915;SDS011;9083;49.156;8.982;2023-09-07T10:57:26;4.25;;;3.60;;
17915;SDS011;9083;49.156;8.982;2023-09-07T10:59:52;5.97;;;3.88;;
17915;SDS011;9083;49.156;8.982;2023-09-07T11:02:21;5.90;;;3.60;;
17915;SDS011;9083;49.156;8.982;2023-09-07T11:04:47;5.55;;;3.38;;
17915;SDS011;9083;49.156;8.982;2023-09-07T11:07:14;4.38;;;3.75;;
17915;SDS011;9083;49.156;8.982;2023-09-07T11:09:41;4.00;;;3.60;;
17915;SDS011;9083;49.156;8.982;2023-09-07T11:12:07;4.35;;;3.78;;
17915;SDS011;9083;49.156;8.982;2023-09-07T11:14:33;6.35;;;3.40;;
17915;SDS011;9083;49.156;8.982;2023-09-07T11:17:00;3.75;;;3.42;;
17915;SDS011;9083;49.156;8.982;2023-09-07T11:19:32;4.05;;;3.65;;
17915;SDS011;9083;49.156;8.982;2023-09-07T11:21:58;5.78;;;4.18;;
17915;SDS011;9083;49.156;8.982;2023-09-07T11:24:24;4.97;;;3.65;;
17915;SDS011;9083;49.156;8.982;2023-09-07T11:26:51;3.90;;;3.60;;
17915;SDS011;9083;49.156;8.982;2023-09-07T11:29:17;5.32;;;3.42;;
17915;SDS011;9083;49.156;8.982;2023-09-07T11:31:44;5.47;;;3.33;;
17915;SDS011;9083;49.156;8.982;2023-09-07T11:34:10;6.85;;;3.70;;
17915;SDS011;9083;49.156;8.982;2023-09-07T11:36:38;3.90;;;3.55;;
17915;SDS011;9083;49.156;8.982;2023-09-07T11:39:05;3.30;;;3.10;;
17915;SDS011;9083;49.156;8.982;2023-09-07T11:41:37;3.60;;;3.30;;
17915;SDS011;9083;49.156;8.982;2023-09-07T11:44:03;5.78;;;3.90;;
17915;SDS011;9083;49.156;8.982;2023-09-07T11:46:29;3.90;;;3.50;;
17915;SDS011;9083;49.156;8.982;2023-09-07T11:48:56;6.18;;;3.45;;
17915;SDS011;9083;49.156;8.982;2023-09-07T11:51:22;8.40;;;3.60;;
17915;SDS011;9083;49.156;8.982;2023-09-07T11:53:50;3.92;;;3.50;;
17915;SDS011;9083;49.156;8.982;2023-09-07T11:56:16;3.92;;;3.63;;
17915;SDS011;9083;49.156;8.982;2023-09-07T11:58:43;6.35;;;4.03;;
17915;SDS011;9083;49.156;8.982;2023-09-07T12:01:09;3.60;;;3.30;;
17915;SDS011;9083;49.156;8.982;2023-09-07T12:03:35;3.53;;;3.33;;
17915;SDS011;9083;49.156;8.982;2023-09-07T12:06:02;4.13;;;3.13;;
17915;SDS011;9083;49.156;8.982;2023-09-07T12:08:28;6.07;;;3.30;;
17915;SDS011;9083;49.156;8.982;2023-09-07T12:10:56;3.45;;;3.15;;
17915;SDS011;9083;49.156;8.982;2023-09-07T12:13:22;3.80;;;3.22;;
17915;SDS011;9083;49.156;8.982;2023-09-07T12:15:50;4.88;;;3.90;;
17915;SDS011;9083;49.156;8.982;2023-09-07T12:18:17;7.03;;;4.30;;
17915;SDS011;9083;49.156;8.982;2023-09-07T12:20:43;4.43;;;3.53;;
17915;SDS011;9083;49.156;8.982;2023-09-07T12:23:09;5.65;;;3.28;;
17915;SDS011;9083;49.156;8.982;2023-09-07T12:25:36;3.45;;;3.15;;
17915;SDS011;9083;49.156;8.982;2023-09-07T12:28:04;4.50;;;3.33;;
17915;SDS011;9083;49.156;8.982;2023-09-07T12:30:30;4.22;;;3.25;;
17915;SDS011;9083;49.156;8.982;2023-09-07T12:32:56;5.30;;;3.60;;
17915;SDS011;9083;49.156;8.982;2023-09-07T12:35:23;3.95;;;3.42;;
17915;SDS011;9083;49.156;8.982;2023-09-07T12:37:49;3.38;;;3.08;;
17915;SDS011;9083;49.156;8.982;2023-09-07T12:40:15;3.60;;;3.30;;
17915;SDS011;9083;49.156;8.982;2023-09-07T12:42:42;5.50;;;3.60;;
17915;SDS011;9083;49.156;8.982;2023-09-07T12:45:10;5.45;;;3.22;;
17915;SDS011;9083;49.156;8.982;2023-09-07T12:47:36;6.43;;;3.67;;
17915;SDS011;9083;49.156;8.982;2023-09-07T12:50:03;5.90;;;3.75;;
17915;SDS011;9083;49.156;8.982;2023-09-07T12:52:30;3.70;;;3.40;;
17915;SDS011;9083;49.156;8.982;2023-09-07T12:54:56;5.38;;;3.40;;
17915;SDS011;9083;49.156;8.982;2023-09-07T12:57:22;5.38;;;3.55;;
17915;SDS011;9083;49.156;8.982;2023-09-07T12:59:48;3.47;;;3.22;;
17915;SDS011;9083;49.156;8.982;2023-09-07T13:02:16;4.53;;;3.50;;
17915;SDS011;9083;49.156;8.982;2023-09-07T13:04:42;3.88;;;3.33;;
17915;SDS011;9083;49.156;8.982;2023-09-07T13:07:09;4.22;;;3.13;;
17915;SDS011;9083;49.156;8.982;2023-09-07T13:09:35;6.32;;;3.38;;
17915;SDS011;9083;49.156;8.982;2023-09-07T13:12:01;5.38;;;3.13;;
17915;SDS011;9083;49.156;8.982;2023-09-07T13:14:27;6.35;;;3.15;;
17915;SDS011;9083;49.156;8.982;2023-09-07T13:16:54;4.28;;;3.53;;
17915;SDS011;9083;49.156;8.982;2023-09-07T13:19:21;4.78;;;3.60;;
17915;SDS011;9083;49.156;8.982;2023-09-07T13:21:48;5.05;;;3.13;;
17915;SDS011;9083;49.156;8.982;2023-09-07T13:24:14;4.30;;;3.78;;
17915;SDS011;9083;49.156;8.982;2023-09-07T13:26:40;3.90;;;3.60;;
17915;SDS011;9083;49.156;8.982;2023-09-07T13:29:06;3.58;;;3.33;;
17915;SDS011;9083;49.156;8.982;2023-09-07T13:31:33;6.30;;;3.25;;
17915;SDS011;9083;49.156;8.982;2023-09-07T13:33:59;4.82;;;3.70;;
17915;SDS011;9083;49.156;8.982;2023-09-07T13:36:27;8.18;;;3.78;;
17915;SDS011;9083;49.156;8.982;2023-09-07T13:38:53;6.15;;;4.00;;
17915;SDS011;9083;49.156;8.982;2023-09-07T13:41:22;10.13;;;3.80;;
17915;SDS011;9083;49.156;8.982;2023-09-07T13:43:49;5.25;;;3.53;;
17915;SDS011;9083;49.156;8.982;2023-09-07T13:46:15;6.13;;;3.03;;
17915;SDS011;9083;49.156;8.982;2023-09-07T13:48:42;3.17;;;2.88;;
17915;SDS011;9083;49.156;8.982;2023-09-07T13:51:08;3.45;;;2.95;;
17915;SDS011;9083;49.156;8.982;2023-09-07T13:53:36;4.40;;;3.55;;
17915;SDS011;9083;49.156;8.982;2023-09-07T13:56:03;3.58;;;3.28;;
17915;SDS011;9083;49.156;8.982;2023-09-07T13:58:29;3.70;;;3.30;;
17915;SDS011;9083;49.156;8.982;2023-09-07T14:00:55;4.65;;;3.33;;
17915;SDS011;9083;49.156;8.982;2023-09-07T14:03:21;9.60;;;3.42;;
17915;SDS011;9083;49.156;8.982;2023-09-07T14:05:48;6.90;;;3.22;;
17915;SDS011;9083;49.156;8.982;2023-09-07T14:08:14;4.80;;;3.05;;
17915;SDS011;9083;49.156;8.982;2023-09-07T14:10:42;3.65;;;3.35;;
17915;SDS011;9083;49.156;8.982;2023-09-07T14:13:08;5.95;;;3.50;;
17915;SDS011;9083;49.156;8.982;2023-09-07T14:15:34;3.17;;;2.88;;
17915;SDS011;9083;49.156;8.982;2023-09-07T14:18:01;6.40;;;3.20;;
17915;SDS011;9083;49.156;8.982;2023-09-07T14:20:27;4.45;;;3.53;;
17915;SDS011;9083;49.156;8.982;2023-09-07T14:22:54;3.95;;;3.40;;
17915;SDS011;9083;49.156;8.982;2023-09-07T14:25:22;5.07;;;3.28;;
17915;SDS011;9083;49.156;8.982;2023-09-07T14:27:49;7.75;;;3.90;;
17915;SDS011;9083;49.156;8.982;2023-09-07T14:30:16;3.70;;;3.40;;
17915;SDS011;9083;49.156;8.982;2023-09-07T14:32:43;7.35;;;3.58;;
17915;SDS011;9083;49.156;8.982;2023-09-07T14:35:10;3.47;;;3.17;;
17915;SDS011;9083;49.156;8.982;2023-09-07T14:37:36;3.42;;;3.22;;
17915;SDS011;9083;49.156;8.982;2023-09-07T14:40:03;4.15;;;3.40;;
17915;SDS011;9083;49.156;8.982;2023-09-07T14:42:29;3.67;;;3.20;;
17915;SDS011;9083;49.156;8.982;2023-09-07T14:44:57;4.13;;;3.63;;
17915;SDS011;9083;49.156;8.982;2023-09-07T14:47:26;4.65;;;3.65;;
17915;SDS011;9083;49.156;8.982;2023-09-07T14:49:53;5.68;;;3.22;;
17915;SDS011;9083;49.156;8.982;2023-09-07T14:52:19;6.38;;;3.80;;
17915;SDS011;9083;49.156;8.982;2023-09-07T14:54:47;9.70;;;3.95;;
17915;SDS011;9083;49.156;8.982;2023-09-07T14:57:13;3.50;;;3.20;;